createdAt,value
2019-01-22T00:02:10.144Z,100891.74
2019-01-22T00:04:38.430Z,100895.73
2019-01-22T00:07:06.721Z,100886.89
2019-01-22T00:09:35.126Z,100890.09
2019-01-22T00:12:04.221Z,100882.30
2019-01-22T00:14:32.511Z,100888.02
2019-01-22T00:17:00.757Z,100888.06
2019-01-22T00:19:29.009Z,100887.24
2019-01-22T00:21:57.291Z,100874.42
2019-01-22T00:24:25.576Z,100879.01
2019-01-22T00:26:53.840Z,100874.63
2019-01-22T00:29:22.136Z,100867.00
2019-01-22T00:31:50.377Z,100861.95
2019-01-22T00:34:18.661Z,100863.06
2019-01-22T00:36:47.084Z,100866.15
2019-01-22T00:39:15.809Z,100867.89
2019-01-22T00:41:44.102Z,100859.52
2019-01-22T00:44:12.394Z,100861.58
2019-01-22T00:46:40.646Z,100855.48
2019-01-22T00:49:08.892Z,100855.91
2019-01-22T00:51:37.285Z,100853.87
2019-01-22T00:54:05.815Z,100858.22
2019-01-22T00:56:34.068Z,100848.77
2019-01-22T00:59:02.354Z,100852.70
2019-01-22T01:01:30.604Z,100847.25
2019-01-22T01:03:58.888Z,100844.75
2019-01-22T01:06:27.174Z,100847.95
2019-01-22T01:08:55.783Z,100842.84
2019-01-22T01:11:24.100Z,100834.88
2019-01-22T01:13:52.347Z,100840.53
2019-01-22T01:16:20.595Z,100837.11
2019-01-22T01:18:48.891Z,100839.41
2019-01-22T01:21:17.139Z,100841.08
2019-01-22T01:23:45.586Z,100834.80
2019-01-22T01:26:13.862Z,100831.16
2019-01-22T01:28:42.107Z,100829.93
2019-01-22T01:31:10.387Z,100826.55
2019-01-22T01:33:38.636Z,100830.36
2019-01-22T01:36:06.918Z,100826.94
2019-01-22T01:38:35.478Z,100823.48
2019-01-22T01:41:04.251Z,100815.91
2019-01-22T01:43:32.545Z,100812.72
2019-01-22T01:46:00.793Z,100805.89
2019-01-22T01:48:29.037Z,100808.02
2019-01-22T01:50:57.330Z,100804.68
2019-01-22T01:53:25.960Z,100802.32
2019-01-22T01:55:54.239Z,100795.44
2019-01-22T01:58:22.483Z,100789.95
2019-01-22T02:00:50.766Z,100787.89
2019-01-22T02:03:19.010Z,100776.56
2019-01-22T02:05:47.289Z,100774.33
2019-01-22T02:08:15.807Z,100770.67
2019-01-22T02:10:44.109Z,100769.89
2019-01-22T02:13:12.356Z,100767.59
2019-01-22T02:15:46.414Z,100753.15
2019-01-22T02:18:20.725Z,100748.77
2019-01-22T02:20:58.205Z,100747.26
2019-01-22T02:23:32.618Z,100744.51
2019-01-22T02:26:04.162Z,100738.77
2019-01-22T02:28:41.721Z,100736.20
2019-01-22T02:31:28.541Z,100733.98
2019-01-22T02:34:02.735Z,100721.36
2019-01-22T02:36:50.618Z,100713.65
2019-01-22T02:39:24.681Z,100714.87
2019-01-22T02:41:56.193Z,100711.75
2019-01-22T02:44:30.754Z,100704.70
2019-01-22T02:47:08.402Z,100697.08
2019-01-22T02:50:04.278Z,100691.55
2019-01-22T02:52:41.838Z,100682.17
2019-01-22T02:55:13.396Z,100682.55
2019-01-22T02:57:51.208Z,100681.34
2019-01-22T03:00:57.916Z,100674.36
2019-01-22T03:03:35.393Z,100669.09
2019-01-22T03:06:28.180Z,100667.56
2019-01-22T03:09:18.845Z,100660.74
2019-01-22T03:11:56.578Z,100654.88
2019-01-22T03:15:01.474Z,100657.69
2019-01-22T03:17:54.131Z,100653.23
2019-01-22T03:20:41.015Z,100651.98
2019-01-22T03:23:24.185Z,100652.45
2019-01-22T03:26:07.340Z,100644.11
2019-01-22T03:28:51.015Z,100639.86
2019-01-22T03:31:25.150Z,100635.41
2019-01-22T03:34:05.249Z,100628.02
2019-01-22T03:36:51.786Z,100631.55
2019-01-22T03:39:26.395Z,100623.05
2019-01-22T03:42:16.031Z,100621.15
2019-01-22T03:44:59.201Z,100616.50
2019-01-22T03:47:42.578Z,100611.66
2019-01-22T03:50:14.128Z,100607.45
2019-01-22T03:52:46.038Z,100607.67
2019-01-22T03:55:29.414Z,100603.80
2019-01-22T03:57:57.672Z,100607.91
2019-01-22T04:00:26.098Z,100602.23
2019-01-22T04:02:54.623Z,100602.22
2019-01-22T04:05:22.910Z,100600.23
2019-01-22T04:07:51.157Z,100601.64
2019-01-22T04:10:22.664Z,100598.94
2019-01-22T04:12:50.954Z,100600.27
2019-01-22T04:15:22.496Z,100591.38
2019-01-22T04:17:51.053Z,100596.76
2019-01-22T04:20:19.299Z,100596.63
2019-01-22T04:22:48.819Z,100596.25
2019-01-22T04:25:44.064Z,100594.24
2019-01-22T04:28:34.860Z,100594.34
2019-01-22T04:31:10.262Z,100601.10
2019-01-22T04:34:06.779Z,100589.63
2019-01-22T04:37:05.623Z,100582.34
2019-01-22T04:39:43.041Z,100579.56
2019-01-22T04:42:14.580Z,100582.91
2019-01-22T04:44:54.946Z,100564.88
2019-01-22T04:47:41.597Z,100578.51
2019-01-22T04:50:22.366Z,100571.63
2019-01-22T04:53:08.744Z,100567.34
2019-01-22T04:55:48.529Z,100563.57
2019-01-22T04:58:20.072Z,100559.70
2019-01-22T05:01:03.023Z,100555.91
2019-01-22T05:03:37.562Z,100549.73
2019-01-22T05:06:21.078Z,100542.56
2019-01-22T05:08:58.219Z,100545.81
2019-01-22T05:11:41.762Z,100537.48
2019-01-22T05:14:22.071Z,100534.72
2019-01-22T05:16:56.180Z,100536.09
2019-01-22T05:19:30.708Z,100530.26
2019-01-22T05:22:19.676Z,100523.89
2019-01-22T05:25:06.313Z,100527.97
2019-01-22T05:27:41.114Z,100527.30
2019-01-22T05:30:15.602Z,100525.00
2019-01-22T05:33:06.406Z,100525.28
2019-01-22T05:35:40.752Z,100525.77
2019-01-22T05:38:21.337Z,100519.88
2019-01-22T05:41:15.648Z,100521.27
2019-01-22T05:44:09.841Z,100512.75
2019-01-22T05:46:59.541Z,100511.06
2019-01-22T05:50:06.386Z,100509.26
2019-01-22T05:52:58.921Z,100505.37
2019-01-22T05:55:39.093Z,100498.97
2019-01-22T05:58:24.927Z,100492.84
2019-01-22T06:00:56.497Z,100497.57
2019-01-22T06:03:31.050Z,100492.41
2019-01-22T06:06:17.827Z,100501.83
2019-01-22T06:08:52.188Z,100502.22
2019-01-22T06:11:29.319Z,100497.87
2019-01-22T06:14:19.016Z,100493.31
2019-01-22T06:17:05.414Z,100490.73
2019-01-22T06:19:54.575Z,100484.95
2019-01-22T06:22:49.068Z,100488.53
2019-01-22T06:25:49.873Z,100485.14
2019-01-22T06:28:33.201Z,100481.27
2019-01-22T06:31:10.300Z,100484.04
2019-01-22T06:33:47.583Z,100476.53
2019-01-22T06:36:27.695Z,100476.53
2019-01-22T06:39:15.931Z,100472.32
2019-01-22T06:42:03.916Z,100465.86
2019-01-22T06:44:47.410Z,100478.38
2019-01-22T06:47:24.544Z,100473.08
2019-01-22T06:50:01.991Z,100472.41
2019-01-22T06:52:39.340Z,100468.16
2019-01-22T06:55:13.643Z,100469.54
2019-01-22T06:57:48.145Z,100466.05
2019-01-22T07:00:22.447Z,100468.97
2019-01-22T07:02:56.830Z,100469.02
2019-01-22T07:05:42.687Z,100463.66
2019-01-22T07:08:18.466Z,100464.86
2019-01-22T07:10:52.696Z,100462.51
2019-01-22T07:13:30.043Z,100468.48
2019-01-22T07:16:07.443Z,100467.20
2019-01-22T07:18:44.497Z,100463.81
2019-01-22T07:21:27.635Z,100457.16
2019-01-22T07:24:14.198Z,100466.91
2019-01-22T07:27:05.383Z,100459.50
2019-01-22T07:29:58.188Z,100457.11
2019-01-22T07:32:29.693Z,100454.14
2019-01-22T07:35:10.327Z,100449.58
2019-01-22T07:37:41.831Z,100452.97
2019-01-22T07:40:27.907Z,100448.41
2019-01-22T07:43:02.269Z,100442.62
2019-01-22T07:45:39.579Z,100449.79
2019-01-22T07:48:11.086Z,100437.95
2019-01-22T07:50:54.701Z,100442.05
2019-01-22T07:53:26.206Z,100435.77
2019-01-22T07:56:17.356Z,100436.56
2019-01-22T07:58:51.840Z,100436.78
2019-01-22T08:01:26.341Z,100431.50
2019-01-22T08:04:14.212Z,100429.62
2019-01-22T08:07:02.266Z,100429.59
2019-01-22T08:09:33.807Z,100428.89
2019-01-22T08:12:26.337Z,100426.70
2019-01-22T08:14:57.891Z,100424.77
2019-01-22T08:17:47.609Z,100424.88
2019-01-22T08:20:53.816Z,100425.53
2019-01-22T08:23:31.386Z,100419.37
2019-01-22T08:26:23.549Z,100415.45
2019-01-22T08:29:03.928Z,100416.23
2019-01-22T08:31:55.049Z,100418.17
2019-01-22T08:34:38.722Z,100408.29
2019-01-22T08:37:29.781Z,100413.20
2019-01-22T08:40:06.990Z,100415.28
2019-01-22T08:42:50.772Z,100408.14
2019-01-22T08:45:28.543Z,100408.52
2019-01-22T08:48:03.205Z,100410.83
2019-01-22T08:50:37.483Z,100400.61
2019-01-22T08:53:11.759Z,100407.16
2019-01-22T08:55:54.618Z,100408.39
2019-01-22T08:58:38.192Z,100403.52
2019-01-22T09:01:18.601Z,100395.27
2019-01-22T09:04:05.269Z,100390.45
2019-01-22T09:06:59.571Z,100389.37
2019-01-22T09:09:42.652Z,100379.11
2019-01-22T09:12:32.041Z,100378.00
2019-01-22T09:15:36.712Z,100376.06
2019-01-22T09:18:35.630Z,100372.20
2019-01-22T09:21:10.193Z,100365.57
2019-01-22T09:24:01.768Z,100365.08
2019-01-22T09:26:33.495Z,100360.38
2019-01-22T09:29:11.215Z,100352.56
2019-01-22T09:31:58.066Z,100345.58
2019-01-22T09:35:01.511Z,100348.33
2019-01-22T09:37:32.107Z,100343.28
2019-01-22T09:40:00.404Z,100335.80
2019-01-22T09:42:28.647Z,100339.09
2019-01-22T09:44:56.927Z,100334.33
2019-01-22T09:47:25.170Z,100336.56
2019-01-22T09:49:53.447Z,100326.15
2019-01-22T09:52:21.727Z,100326.10
2019-01-22T09:54:50.012Z,100326.80
2019-01-22T09:57:18.252Z,100325.96
2019-01-22T09:59:46.534Z,100325.62
2019-01-22T10:02:14.820Z,100321.67
2019-01-22T10:04:43.072Z,100319.66
2019-01-22T10:07:11.357Z,100316.62
2019-01-22T10:09:39.712Z,100312.59
2019-01-22T10:12:07.996Z,100308.22
2019-01-22T10:14:36.234Z,100298.78
2019-01-22T10:17:04.527Z,100299.72
2019-01-22T10:19:32.777Z,100296.84
2019-01-22T10:22:01.015Z,100294.24
2019-01-22T10:24:30.420Z,100295.02
2019-01-22T10:26:58.710Z,100288.84
2019-01-22T10:29:26.955Z,100285.97
2019-01-22T10:31:55.198Z,100281.33
2019-01-22T10:34:23.483Z,100278.86
2019-01-22T10:36:51.765Z,100285.66
2019-01-22T10:39:20.007Z,100273.79
2019-01-22T10:41:48.286Z,100276.02
2019-01-22T10:44:16.535Z,100265.28
2019-01-22T10:46:44.811Z,100265.64
2019-01-22T10:49:13.055Z,100256.59
2019-01-22T10:51:41.327Z,100258.04
2019-01-22T10:54:09.613Z,100253.13
2019-01-22T10:56:37.882Z,100256.42
2019-01-22T10:59:06.126Z,100243.67
2019-01-22T11:01:34.413Z,100242.30
2019-01-22T11:04:02.661Z,100230.59
2019-01-22T11:06:30.954Z,100227.08
2019-01-22T11:08:59.203Z,100224.98
2019-01-22T11:11:27.502Z,100218.81
2019-01-22T11:13:55.742Z,100211.01
2019-01-22T11:16:23.982Z,100201.59
2019-01-22T11:18:52.314Z,100203.63
2019-01-22T11:21:20.554Z,100197.13
2019-01-22T11:23:48.831Z,100195.98
2019-01-22T11:26:17.104Z,100188.56
2019-01-22T11:28:45.347Z,100179.28
2019-01-22T11:31:13.630Z,100180.52
2019-01-22T11:33:41.880Z,100174.56
2019-01-22T11:36:10.153Z,100169.53
2019-01-22T11:38:38.394Z,100161.45
2019-01-22T11:41:06.684Z,100159.95
2019-01-22T11:43:34.927Z,100148.06
2019-01-22T11:46:04.215Z,100144.20
2019-01-22T11:48:32.501Z,100145.37
2019-01-22T11:51:00.761Z,100133.39
2019-01-22T11:53:29.023Z,100127.02
2019-01-22T11:55:57.300Z,100121.86
2019-01-22T11:58:25.580Z,100118.61
2019-01-22T12:00:55.432Z,100117.75
2019-01-22T12:03:23.686Z,100116.44
2019-01-22T12:05:53.379Z,100109.98
2019-01-22T12:08:21.695Z,100110.27
2019-01-22T12:10:49.937Z,100103.41
2019-01-22T12:13:18.273Z,100100.02
2019-01-22T12:15:46.553Z,100093.39
2019-01-22T12:18:14.840Z,100083.02
2019-01-22T12:20:44.623Z,100074.35
2019-01-22T12:23:12.864Z,100073.14
2019-01-22T12:25:41.160Z,100068.58
2019-01-22T12:28:09.406Z,100057.06
2019-01-22T12:30:38.221Z,100062.88
2019-01-22T12:33:06.570Z,100057.42
2019-01-22T12:35:34.811Z,100055.01
2019-01-22T12:38:03.094Z,100048.54
2019-01-22T12:40:31.356Z,100042.78
2019-01-22T12:42:59.648Z,100033.20
2019-01-22T12:45:36.344Z,100041.12
2019-01-22T12:48:05.319Z,100034.24
2019-01-22T12:50:33.622Z,100029.23
2019-01-22T12:53:01.874Z,100026.02
2019-01-22T12:55:30.145Z,100018.09
2019-01-22T12:57:58.431Z,100013.87
2019-01-22T13:00:31.599Z,100008.39
2019-01-22T13:02:59.882Z,100010.66
2019-01-22T13:05:34.499Z,99996.83
2019-01-22T13:08:02.739Z,99992.94
2019-01-22T13:10:31.011Z,99988.29
2019-01-22T13:12:59.299Z,99984.02
2019-01-22T13:15:27.575Z,99973.84
2019-01-22T13:17:55.817Z,99966.27
2019-01-22T13:20:24.170Z,99964.50
2019-01-22T13:22:52.450Z,99965.05
2019-01-22T13:25:20.984Z,99957.70
2019-01-22T13:27:49.570Z,99947.83
2019-01-22T13:30:28.456Z,99951.98
2019-01-22T13:32:56.694Z,99944.16
2019-01-22T13:35:24.979Z,99941.92
2019-01-22T13:37:53.253Z,99935.06
2019-01-22T13:40:21.516Z,99932.63
2019-01-22T13:42:49.790Z,99930.88
2019-01-22T13:45:33.563Z,99926.11
2019-01-22T13:48:03.691Z,99923.89
2019-01-22T13:50:31.939Z,99916.34
2019-01-22T13:53:00.225Z,99913.58
2019-01-22T13:55:34.252Z,99911.72
2019-01-22T13:58:02.534Z,99910.22
2019-01-22T14:00:30.847Z,99904.34
2019-01-22T14:03:00.673Z,99902.24
2019-01-22T14:05:28.959Z,99893.61
2019-01-22T14:07:57.246Z,99895.67
2019-01-22T14:10:25.538Z,99888.85
2019-01-22T14:12:53.801Z,99885.61
2019-01-22T14:15:24.984Z,99879.49
2019-01-22T14:17:53.224Z,99875.38
2019-01-22T14:20:21.514Z,99878.75
2019-01-22T14:22:49.792Z,99866.43
2019-01-22T14:25:20.318Z,99864.38
2019-01-22T14:27:48.597Z,99862.67
2019-01-22T14:30:22.685Z,99860.78
2019-01-22T14:32:50.964Z,99849.56
2019-01-22T14:35:19.203Z,99846.81
2019-01-22T14:37:47.632Z,99857.08
2019-01-22T14:40:15.912Z,99851.73
2019-01-22T14:42:44.205Z,99851.47
2019-01-22T14:45:17.462Z,99845.53
2019-01-22T14:47:45.759Z,99836.31
2019-01-22T14:50:22.506Z,99835.66
2019-01-22T14:52:50.788Z,99833.20
2019-01-22T14:55:19.067Z,99838.56
2019-01-22T14:57:47.704Z,99833.59
2019-01-22T15:00:20.890Z,99832.55
2019-01-22T15:02:49.175Z,99831.95
2019-01-22T15:05:17.420Z,99829.69
2019-01-22T15:07:45.705Z,99825.73
2019-01-22T15:10:15.929Z,99826.84
2019-01-22T15:12:45.153Z,99815.72
2019-01-22T15:15:15.330Z,99818.82
2019-01-22T15:17:43.613Z,99812.66
2019-01-22T15:20:20.454Z,99811.70
2019-01-22T15:22:48.739Z,99808.28
2019-01-22T15:25:17.128Z,99807.18
2019-01-22T15:27:45.752Z,99806.54
2019-01-22T15:30:28.292Z,99802.87
2019-01-22T15:32:56.608Z,99796.38
2019-01-22T15:35:24.854Z,99801.04
2019-01-22T15:37:53.139Z,99797.98
2019-01-22T15:40:26.138Z,99795.81
2019-01-22T15:42:54.396Z,99782.44
2019-01-22T15:45:23.000Z,99781.55
2019-01-22T15:47:51.286Z,99784.23
2019-01-22T15:50:21.107Z,99781.34
2019-01-22T15:52:49.497Z,99778.59
2019-01-22T15:55:21.047Z,99775.42
2019-01-22T15:57:49.291Z,99770.98
2019-01-22T16:00:19.523Z,99773.97
2019-01-22T16:02:47.813Z,99770.41
2019-01-22T16:05:16.055Z,99765.50
2019-01-22T16:07:44.303Z,99764.84
2019-01-22T16:10:13.185Z,99758.95
2019-01-22T16:12:41.478Z,99761.51
2019-01-22T16:15:12.817Z,99758.30
2019-01-22T16:17:41.058Z,99758.41
2019-01-22T16:20:17.997Z,99750.74
2019-01-22T16:22:46.279Z,99752.04
2019-01-22T16:25:14.520Z,99748.30
2019-01-22T16:27:43.177Z,99745.53
2019-01-22T16:30:17.211Z,99749.48
2019-01-22T16:32:45.495Z,99741.63
2019-01-22T16:35:18.820Z,99738.83
2019-01-22T16:37:47.108Z,99739.38
2019-01-22T16:40:16.482Z,99737.81
2019-01-22T16:42:45.199Z,99736.05
2019-01-22T16:45:24.947Z,99735.25
2019-01-22T16:47:53.352Z,99728.63
2019-01-22T16:50:22.055Z,99730.55
2019-01-22T16:52:50.468Z,99731.81
2019-01-22T16:55:24.750Z,99732.53
2019-01-22T16:57:52.996Z,99736.42
2019-01-22T17:00:24.126Z,99736.81
2019-01-22T17:02:52.538Z,99736.28
2019-01-22T17:05:20.842Z,99738.51
2019-01-22T17:07:49.090Z,99731.89
2019-01-22T17:10:19.237Z,99736.56
2019-01-22T17:12:47.556Z,99735.26
2019-01-22T17:15:16.780Z,99733.18
2019-01-22T17:17:45.025Z,99731.02
2019-01-22T17:20:24.908Z,99732.02
2019-01-22T17:22:53.215Z,99729.29
2019-01-22T17:25:23.170Z,99731.45
2019-01-22T17:27:51.467Z,99725.61
2019-01-22T17:30:22.349Z,99722.42
2019-01-22T17:32:52.231Z,99724.69
2019-01-22T17:35:20.651Z,99719.93
2019-01-22T17:37:48.901Z,99720.36
2019-01-22T17:40:17.156Z,99715.11
2019-01-22T17:42:45.463Z,99721.23
2019-01-22T17:45:13.747Z,99717.88
2019-01-22T17:47:42.109Z,99712.77
2019-01-22T17:50:12.863Z,99711.13
2019-01-22T17:52:41.185Z,99710.30
2019-01-22T17:55:11.871Z,99705.25
2019-01-22T17:57:40.170Z,99707.91
2019-01-22T18:00:16.194Z,99701.26
2019-01-22T18:02:44.483Z,99703.09
2019-01-22T18:05:15.206Z,99703.72
2019-01-22T18:07:43.521Z,99700.80
2019-01-22T18:10:14.471Z,99694.38
2019-01-22T18:12:42.734Z,99691.33
2019-01-22T18:15:13.663Z,99697.14
2019-01-22T18:17:41.981Z,99694.58
2019-01-22T18:20:13.274Z,99688.23
2019-01-22T18:22:41.553Z,99688.06
2019-01-22T18:25:10.785Z,99693.68
2019-01-22T18:27:39.084Z,99693.11
2019-01-22T18:30:13.432Z,99688.45
2019-01-22T18:32:41.691Z,99683.48
2019-01-22T18:35:22.065Z,99679.41
2019-01-22T18:37:50.335Z,99677.02
2019-01-22T18:40:19.410Z,99683.55
2019-01-22T18:42:47.675Z,99680.25
2019-01-22T18:45:17.514Z,99680.31
2019-01-22T18:47:45.761Z,99676.95
2019-01-22T18:50:23.147Z,99674.23
2019-01-22T18:52:51.681Z,99671.89
2019-01-22T18:55:21.449Z,99673.98
2019-01-22T18:57:50.299Z,99676.50
2019-01-22T19:00:22.837Z,99678.12
2019-01-22T19:02:51.686Z,99674.69
2019-01-22T19:05:20.085Z,99670.89
2019-01-22T19:07:48.456Z,99670.89
2019-01-22T19:10:22.546Z,99677.03
2019-01-22T19:12:50.980Z,99675.45
2019-01-22T19:15:19.856Z,99670.67
2019-01-22T19:17:48.156Z,99671.97
2019-01-22T19:20:16.560Z,99666.87
2019-01-22T19:22:44.803Z,99662.52
2019-01-22T19:25:21.742Z,99665.11
2019-01-22T19:27:50.036Z,99656.58
2019-01-22T19:30:29.278Z,99661.29
2019-01-22T19:32:57.593Z,99653.08
2019-01-22T19:35:25.839Z,99650.67
2019-01-22T19:37:54.144Z,99647.44
2019-01-22T19:40:22.399Z,99653.86
2019-01-22T19:42:50.693Z,99644.73
2019-01-22T19:45:24.697Z,99646.36
2019-01-22T19:47:52.936Z,99641.83
2019-01-22T19:50:21.249Z,99637.56
2019-01-22T19:52:49.490Z,99631.52
2019-01-22T19:55:17.742Z,99629.16
2019-01-22T19:57:46.035Z,99630.30
2019-01-22T20:00:19.732Z,99634.58
2019-01-22T20:02:47.982Z,99623.38
2019-01-22T20:05:16.301Z,99617.88
2019-01-22T20:07:44.623Z,99619.63
2019-01-22T20:10:17.326Z,99614.13
2019-01-22T20:12:45.590Z,99608.10
2019-01-22T20:15:21.252Z,99607.34
2019-01-22T20:17:49.494Z,99610.84
2019-01-22T20:20:18.985Z,99616.70
2019-01-22T20:22:47.278Z,99610.95
2019-01-22T20:25:16.339Z,99606.95
2019-01-22T20:27:48.294Z,99606.95
2019-01-22T20:30:18.001Z,99606.81
2019-01-22T20:32:46.357Z,99613.79
2019-01-22T20:35:14.603Z,99610.13
2019-01-22T20:37:42.899Z,99609.52
2019-01-22T20:40:15.404Z,99603.77
2019-01-22T20:42:43.693Z,99601.88
2019-01-22T20:45:17.082Z,99595.30
2019-01-22T20:47:45.370Z,99598.39
2019-01-22T20:50:18.987Z,99595.23
2019-01-22T20:52:44.964Z,99595.95
2019-01-22T20:55:18.285Z,99596.63
2019-01-22T20:57:46.573Z,99594.19
2019-01-22T21:00:19.641Z,99586.11
2019-01-22T21:02:47.928Z,99587.58
2019-01-22T21:05:18.388Z,99581.91
2019-01-22T21:07:46.843Z,99589.98
2019-01-22T21:10:21.547Z,99584.89
2019-01-22T21:12:49.860Z,99584.53
2019-01-22T21:15:18.113Z,99584.42
2019-01-22T21:17:46.400Z,99581.44
2019-01-22T21:20:18.168Z,99576.92
2019-01-22T21:22:46.495Z,99575.70
2019-01-22T21:25:19.757Z,99579.18
2019-01-22T21:27:48.000Z,99576.13
2019-01-22T21:30:19.347Z,99580.19
2019-01-22T21:32:47.591Z,99583.74
2019-01-22T21:35:15.835Z,99579.86
2019-01-22T21:37:44.139Z,99579.36
2019-01-22T21:40:14.132Z,99583.06
2019-01-22T21:42:42.423Z,99584.92
2019-01-22T21:45:20.044Z,99586.15
2019-01-22T21:47:48.330Z,99595.95
2019-01-22T21:50:16.576Z,99582.27
2019-01-22T21:52:44.930Z,99578.00
2019-01-22T21:55:15.416Z,99583.64
2019-01-22T21:57:43.699Z,99582.20
2019-01-22T22:00:15.596Z,99591.09
2019-01-22T22:02:44.547Z,99588.66
2019-01-22T22:05:13.333Z,99592.32
2019-01-22T22:07:41.620Z,99590.13
2019-01-22T22:10:15.471Z,99592.06
2019-01-22T22:12:43.789Z,99583.91
2019-01-22T22:15:14.771Z,99579.57
2019-01-22T22:17:43.061Z,99580.21
2019-01-22T22:20:15.449Z,99575.22
2019-01-22T22:22:43.694Z,99569.00
2019-01-22T22:25:17.596Z,99572.30
2019-01-22T22:27:45.838Z,99571.66
2019-01-22T22:30:16.928Z,99569.09
2019-01-22T22:32:45.185Z,99571.34
2019-01-22T22:35:13.426Z,99570.53
2019-01-22T22:37:41.827Z,99570.70
2019-01-22T22:40:15.586Z,99573.45
2019-01-22T22:42:43.873Z,99568.12
2019-01-22T22:45:15.053Z,99564.95
2019-01-22T22:47:43.340Z,99566.99
2019-01-22T22:50:19.814Z,99566.48
2019-01-22T22:52:48.307Z,99557.84
2019-01-22T22:55:16.714Z,99556.25
2019-01-22T22:57:44.972Z,99557.86
2019-01-22T23:00:33.260Z,99557.03
2019-01-22T23:03:02.252Z,99553.25
2019-01-22T23:05:30.502Z,99556.41
2019-01-22T23:07:58.794Z,99551.14
2019-01-22T23:10:27.055Z,99553.88
2019-01-22T23:12:55.533Z,99553.73
2019-01-22T23:15:23.782Z,99548.47
2019-01-22T23:17:52.025Z,99547.73
2019-01-22T23:20:20.423Z,99546.98
2019-01-22T23:22:48.664Z,99546.52
2019-01-22T23:25:16.941Z,99539.48
2019-01-22T23:27:45.554Z,99541.83
2019-01-22T23:30:15.855Z,99538.52
2019-01-22T23:32:45.335Z,99536.09
2019-01-22T23:35:13.617Z,99531.40
2019-01-22T23:37:41.892Z,99523.31
2019-01-22T23:40:14.495Z,99518.00
2019-01-22T23:42:42.778Z,99518.63
2019-01-22T23:45:12.273Z,99520.97
2019-01-22T23:47:40.528Z,99517.56
2019-01-22T23:50:11.246Z,99520.69
2019-01-22T23:52:39.607Z,99516.51
2019-01-22T23:55:08.836Z,99516.16
2019-01-22T23:57:37.086Z,99506.00
